sensor_id;sensor_type;location;lat;lon;timestamp;P1;durP1;ratioP1;P2;durP2;ratioP2
66874;SDS011;53784;52.630;4.896;2023-04-01T00:00:58;30.70;;;9.43;;
66874;SDS011;53784;52.630;4.896;2023-04-01T00:03:23;33.13;;;9.82;;
66874;SDS011;53784;52.630;4.896;2023-04-01T00:05:49;31.13;;;9.57;;
66874;SDS011;53784;52.630;4.896;2023-04-01T00:08:14;36.95;;;10.18;;
66874;SDS011;53784;52.630;4.896;2023-04-01T00:10:40;33.65;;;9.80;;
66874;SDS011;53784;52.630;4.896;2023-04-01T00:13:05;31.73;;;9.37;;
66874;SDS011;53784;52.630;4.896;2023-04-01T00:15:30;33.70;;;8.83;;
66874;SDS011;53784;52.630;4.896;2023-04-01T00:17:56;29.55;;;9.25;;
66874;SDS011;53784;52.630;4.896;2023-04-01T00:20:21;30.67;;;8.75;;
66874;SDS011;53784;52.630;4.896;2023-04-01T00:22:46;29.88;;;9.13;;
66874;SDS011;53784;52.630;4.896;2023-04-01T00:25:11;35.10;;;9.43;;
66874;SDS011;53784;52.630;4.896;2023-04-01T00:27:37;33.22;;;9.52;;
66874;SDS011;53784;52.630;4.896;2023-04-01T00:30:02;35.67;;;9.77;;
66874;SDS011;53784;52.630;4.896;2023-04-01T00:32:27;37.90;;;9.35;;
66874;SDS011;53784;52.630;4.896;2023-04-01T00:34:53;40.15;;;9.30;;
66874;SDS011;53784;52.630;4.896;2023-04-01T00:37:19;30.98;;;9.18;;
66874;SDS011;53784;52.630;4.896;2023-04-01T00:39:45;37.22;;;9.73;;
66874;SDS011;53784;52.630;4.896;2023-04-01T00:42:11;32.93;;;9.60;;
66874;SDS011;53784;52.630;4.896;2023-04-01T00:44:37;33.72;;;9.32;;
66874;SDS011;53784;52.630;4.896;2023-04-01T00:47:03;35.55;;;9.90;;
66874;SDS011;53784;52.630;4.896;2023-04-01T00:49:29;35.83;;;9.97;;
66874;SDS011;53784;52.630;4.896;2023-04-01T00:51:56;37.90;;;9.68;;
66874;SDS011;53784;52.630;4.896;2023-04-01T00:54:22;35.92;;;9.45;;
66874;SDS011;53784;52.630;4.896;2023-04-01T00:56:50;36.33;;;9.18;;
66874;SDS011;53784;52.630;4.896;2023-04-01T00:59:21;36.33;;;10.57;;
66874;SDS011;53784;52.630;4.896;2023-04-01T01:01:47;28.98;;;8.63;;
66874;SDS011;53784;52.630;4.896;2023-04-01T01:04:29;37.37;;;8.80;;
66874;SDS011;53784;52.630;4.896;2023-04-01T01:09:40;35.38;;;10.05;;
66874;SDS011;53784;52.630;4.896;2023-04-01T01:14:36;30.90;;;9.60;;
66874;SDS011;53784;52.630;4.896;2023-04-01T01:17:04;34.50;;;9.23;;
66874;SDS011;53784;52.630;4.896;2023-04-01T01:19:48;31.50;;;9.63;;
66874;SDS011;53784;52.630;4.896;2023-04-01T01:22:20;31.48;;;9.20;;
66874;SDS011;53784;52.630;4.896;2023-04-01T01:27:16;30.27;;;9.68;;
66874;SDS011;53784;52.630;4.896;2023-04-01T01:34:40;22.13;;;7.70;;
66874;SDS011;53784;52.630;4.896;2023-04-01T01:37:15;27.73;;;9.13;;
66874;SDS011;53784;52.630;4.896;2023-04-01T01:39:41;27.13;;;9.07;;
66874;SDS011;53784;52.630;4.896;2023-04-01T01:42:08;14.80;;;6.28;;
66874;SDS011;53784;52.630;4.896;2023-04-01T01:44:35;13.27;;;5.30;;
66874;SDS011;53784;52.630;4.896;2023-04-01T01:47:00;11.88;;;5.03;;
66874;SDS011;53784;52.630;4.896;2023-04-01T01:49:26;8.50;;;4.03;;
66874;SDS011;53784;52.630;4.896;2023-04-01T01:51:52;7.55;;;3.90;;
66874;SDS011;53784;52.630;4.896;2023-04-01T01:54:17;7.70;;;3.78;;
66874;SDS011;53784;52.630;4.896;2023-04-01T01:56:44;9.43;;;3.85;;
66874;SDS011;53784;52.630;4.896;2023-04-01T01:59:10;8.38;;;4.20;;
66874;SDS011;53784;52.630;4.896;2023-04-01T02:01:37;8.32;;;4.28;;
66874;SDS011;53784;52.630;4.896;2023-04-01T02:04:03;9.98;;;4.65;;
66874;SDS011;53784;52.630;4.896;2023-04-01T02:06:30;9.25;;;4.88;;
66874;SDS011;53784;52.630;4.896;2023-04-01T02:08:59;9.93;;;5.00;;
66874;SDS011;53784;52.630;4.896;2023-04-01T02:11:27;10.27;;;4.97;;
66874;SDS011;53784;52.630;4.896;2023-04-01T02:13:55;10.35;;;5.32;;
66874;SDS011;53784;52.630;4.896;2023-04-01T02:16:23;9.75;;;5.20;;
66874;SDS011;53784;52.630;4.896;2023-04-01T02:18:50;13.07;;;5.93;;
66874;SDS011;53784;52.630;4.896;2023-04-01T02:21:18;10.50;;;5.43;;
66874;SDS011;53784;52.630;4.896;2023-04-01T02:23:45;12.45;;;5.65;;
66874;SDS011;53784;52.630;4.896;2023-04-01T02:26:11;10.10;;;5.63;;
66874;SDS011;53784;52.630;4.896;2023-04-01T02:28:38;10.35;;;5.35;;
66874;SDS011;53784;52.630;4.896;2023-04-01T02:31:04;10.40;;;5.72;;
66874;SDS011;53784;52.630;4.896;2023-04-01T02:33:30;10.60;;;5.78;;
66874;SDS011;53784;52.630;4.896;2023-04-01T02:35:55;10.38;;;5.50;;
66874;SDS011;53784;52.630;4.896;2023-04-01T02:38:20;10.98;;;5.65;;
66874;SDS011;53784;52.630;4.896;2023-04-01T02:40:50;10.90;;;5.70;;
66874;SDS011;53784;52.630;4.896;2023-04-01T02:43:15;12.23;;;6.20;;
66874;SDS011;53784;52.630;4.896;2023-04-01T02:45:42;12.38;;;6.32;;
66874;SDS011;53784;52.630;4.896;2023-04-01T02:48:08;12.32;;;6.05;;
66874;SDS011;53784;52.630;4.896;2023-04-01T02:50:33;11.65;;;6.53;;
66874;SDS011;53784;52.630;4.896;2023-04-01T02:52:59;11.93;;;6.15;;
66874;SDS011;53784;52.630;4.896;2023-04-01T02:55:24;10.75;;;5.68;;
66874;SDS011;53784;52.630;4.896;2023-04-01T02:57:51;11.85;;;5.97;;
66874;SDS011;53784;52.630;4.896;2023-04-01T03:00:16;9.75;;;5.07;;
66874;SDS011;53784;52.630;4.896;2023-04-01T03:02:42;8.80;;;4.93;;
66874;SDS011;53784;52.630;4.896;2023-04-01T03:05:09;9.00;;;4.72;;
66874;SDS011;53784;52.630;4.896;2023-04-01T03:07:34;9.63;;;5.30;;
66874;SDS011;53784;52.630;4.896;2023-04-01T03:09:59;10.23;;;5.33;;
66874;SDS011;53784;52.630;4.896;2023-04-01T03:12:24;10.48;;;5.25;;
66874;SDS011;53784;52.630;4.896;2023-04-01T03:14:50;9.05;;;4.97;;
66874;SDS011;53784;52.630;4.896;2023-04-01T03:17:15;9.17;;;5.23;;
66874;SDS011;53784;52.630;4.896;2023-04-01T03:19:45;9.03;;;5.40;;
66874;SDS011;53784;52.630;4.896;2023-04-01T03:22:10;11.10;;;5.80;;
66874;SDS011;53784;52.630;4.896;2023-04-01T03:24:36;9.68;;;5.03;;
66874;SDS011;53784;52.630;4.896;2023-04-01T03:27:01;9.53;;;5.33;;
66874;SDS011;53784;52.630;4.896;2023-04-01T03:29:26;10.05;;;5.50;;
66874;SDS011;53784;52.630;4.896;2023-04-01T03:31:51;9.35;;;5.15;;
66874;SDS011;53784;52.630;4.896;2023-04-01T03:34:17;11.03;;;5.57;;
66874;SDS011;53784;52.630;4.896;2023-04-01T03:36:42;9.67;;;5.10;;
66874;SDS011;53784;52.630;4.896;2023-04-01T03:39:07;9.93;;;5.47;;
66874;SDS011;53784;52.630;4.896;2023-04-01T03:41:34;8.67;;;4.93;;
66874;SDS011;53784;52.630;4.896;2023-04-01T03:44:00;10.43;;;4.95;;
66874;SDS011;53784;52.630;4.896;2023-04-01T03:46:25;10.25;;;4.85;;
66874;SDS011;53784;52.630;4.896;2023-04-01T03:48:50;9.23;;;5.07;;
66874;SDS011;53784;52.630;4.896;2023-04-01T03:51:16;10.40;;;5.10;;
66874;SDS011;53784;52.630;4.896;2023-04-01T03:53:41;9.85;;;4.78;;
66874;SDS011;53784;52.630;4.896;2023-04-01T03:56:06;10.27;;;5.07;;
66874;SDS011;53784;52.630;4.896;2023-04-01T03:58:32;9.57;;;5.10;;
66874;SDS011;53784;52.630;4.896;2023-04-01T04:00:57;9.02;;;4.90;;
66874;SDS011;53784;52.630;4.896;2023-04-01T04:03:28;13.70;;;4.70;;
66874;SDS011;53784;52.630;4.896;2023-04-01T04:05:53;8.87;;;5.20;;
66874;SDS011;53784;52.630;4.896;2023-04-01T04:08:18;8.73;;;4.63;;
66874;SDS011;53784;52.630;4.896;2023-04-01T04:10:46;9.40;;;4.60;;
66874;SDS011;53784;52.630;4.896;2023-04-01T04:13:11;8.63;;;4.50;;
66874;SDS011;53784;52.630;4.896;2023-04-01T04:15:36;9.57;;;4.70;;
66874;SDS011;53784;52.630;4.896;2023-04-01T04:18:01;8.68;;;4.47;;
66874;SDS011;53784;52.630;4.896;2023-04-01T04:20:27;13.43;;;5.60;;
66874;SDS011;53784;52.630;4.896;2023-04-01T04:22:52;9.40;;;4.82;;
66874;SDS011;53784;52.630;4.896;2023-04-01T04:25:17;10.10;;;5.18;;
66874;SDS011;53784;52.630;4.896;2023-04-01T04:27:42;10.07;;;5.18;;
66874;SDS011;53784;52.630;4.896;2023-04-01T04:30:08;11.35;;;5.35;;
66874;SDS011;53784;52.630;4.896;2023-04-01T04:32:33;10.80;;;5.15;;
66874;SDS011;53784;52.630;4.896;2023-04-01T04:34:59;11.85;;;5.88;;
66874;SDS011;53784;52.630;4.896;2023-04-01T04:37:24;10.83;;;5.60;;
66874;SDS011;53784;52.630;4.896;2023-04-01T04:39:50;14.18;;;5.57;;
66874;SDS011;53784;52.630;4.896;2023-04-01T04:42:15;13.20;;;5.47;;
66874;SDS011;53784;52.630;4.896;2023-04-01T04:44:41;12.93;;;5.90;;
66874;SDS011;53784;52.630;4.896;2023-04-01T04:47:07;12.50;;;6.03;;
66874;SDS011;53784;52.630;4.896;2023-04-01T04:49:32;14.70;;;6.07;;
66874;SDS011;53784;52.630;4.896;2023-04-01T04:51:58;17.57;;;7.27;;
66874;SDS011;53784;52.630;4.896;2023-04-01T04:54:23;17.60;;;7.07;;
66874;SDS011;53784;52.630;4.896;2023-04-01T04:56:48;19.30;;;7.77;;
66874;SDS011;53784;52.630;4.896;2023-04-01T04:59:15;19.63;;;8.02;;
66874;SDS011;53784;52.630;4.896;2023-04-01T05:01:40;20.23;;;8.50;;
66874;SDS011;53784;52.630;4.896;2023-04-01T05:04:06;21.30;;;8.32;;
66874;SDS011;53784;52.630;4.896;2023-04-01T05:06:31;21.95;;;8.60;;
66874;SDS011;53784;52.630;4.896;2023-04-01T05:08:56;23.05;;;9.10;;
66874;SDS011;53784;52.630;4.896;2023-04-01T05:11:22;21.70;;;7.87;;
66874;SDS011;53784;52.630;4.896;2023-04-01T05:13:47;19.93;;;7.63;;
66874;SDS011;53784;52.630;4.896;2023-04-01T05:16:13;18.73;;;7.53;;
66874;SDS011;53784;52.630;4.896;2023-04-01T05:18:39;16.63;;;7.60;;
66874;SDS011;53784;52.630;4.896;2023-04-01T05:21:06;21.75;;;7.68;;
66874;SDS011;53784;52.630;4.896;2023-04-01T05:23:31;19.58;;;7.85;;
66874;SDS011;53784;52.630;4.896;2023-04-01T05:25:57;19.88;;;8.05;;
66874;SDS011;53784;52.630;4.896;2023-04-01T05:28:22;20.30;;;7.83;;
66874;SDS011;53784;52.630;4.896;2023-04-01T05:30:48;20.30;;;7.37;;
66874;SDS011;53784;52.630;4.896;2023-04-01T05:33:13;22.90;;;7.63;;
66874;SDS011;53784;52.630;4.896;2023-04-01T05:35:38;19.00;;;6.80;;
66874;SDS011;53784;52.630;4.896;2023-04-01T05:38:04;19.95;;;7.57;;
66874;SDS011;53784;52.630;4.896;2023-04-01T05:40:29;19.70;;;7.53;;
66874;SDS011;53784;52.630;4.896;2023-04-01T05:42:55;19.98;;;7.60;;
66874;SDS011;53784;52.630;4.896;2023-04-01T05:45:20;22.90;;;7.40;;
66874;SDS011;53784;52.630;4.896;2023-04-01T05:47:45;20.02;;;7.47;;
66874;SDS011;53784;52.630;4.896;2023-04-01T05:50:11;21.37;;;7.10;;
66874;SDS011;53784;52.630;4.896;2023-04-01T05:52:37;21.42;;;7.18;;
66874;SDS011;53784;52.630;4.896;2023-04-01T05:55:02;22.90;;;8.45;;
66874;SDS011;53784;52.630;4.896;2023-04-01T05:57:27;25.52;;;8.75;;
66874;SDS011;53784;52.630;4.896;2023-04-01T05:59:53;22.17;;;8.30;;
66874;SDS011;53784;52.630;4.896;2023-04-01T06:02:18;21.27;;;7.90;;
66874;SDS011;53784;52.630;4.896;2023-04-01T06:04:43;23.05;;;7.88;;
66874;SDS011;53784;52.630;4.896;2023-04-01T06:07:13;24.17;;;8.23;;
66874;SDS011;53784;52.630;4.896;2023-04-01T06:09:38;26.30;;;8.18;;
66874;SDS011;53784;52.630;4.896;2023-04-01T06:20:03;24.52;;;8.40;;
66874;SDS011;53784;52.630;4.896;2023-04-01T06:38:00;24.45;;;8.68;;
66874;SDS011;53784;52.630;4.896;2023-04-01T06:40:40;24.65;;;10.27;;
66874;SDS011;53784;52.630;4.896;2023-04-01T06:45:37;24.40;;;10.73;;
66874;SDS011;53784;52.630;4.896;2023-04-01T06:56:17;18.65;;;8.27;;
66874;SDS011;53784;52.630;4.896;2023-04-01T06:58:48;23.23;;;8.05;;
66874;SDS011;53784;52.630;4.896;2023-04-01T07:01:20;17.88;;;8.18;;
66874;SDS011;53784;52.630;4.896;2023-04-01T07:03:48;19.70;;;7.10;;
66874;SDS011;53784;52.630;4.896;2023-04-01T07:06:17;21.17;;;8.65;;
66874;SDS011;53784;52.630;4.896;2023-04-01T07:08:44;16.73;;;7.15;;
66874;SDS011;53784;52.630;4.896;2023-04-01T07:11:11;22.20;;;9.57;;
66874;SDS011;53784;52.630;4.896;2023-04-01T07:13:39;21.73;;;8.35;;
66874;SDS011;53784;52.630;4.896;2023-04-01T07:18:32;21.17;;;8.10;;
66874;SDS011;53784;52.630;4.896;2023-04-01T07:20:58;18.25;;;7.90;;
66874;SDS011;53784;52.630;4.896;2023-04-01T07:23:32;18.57;;;7.53;;
66874;SDS011;53784;52.630;4.896;2023-04-01T07:25:59;17.35;;;7.10;;
66874;SDS011;53784;52.630;4.896;2023-04-01T07:28:26;19.90;;;7.50;;
66874;SDS011;53784;52.630;4.896;2023-04-01T07:33:22;16.02;;;6.13;;
66874;SDS011;53784;52.630;4.896;2023-04-01T07:35:57;15.13;;;6.85;;
66874;SDS011;53784;52.630;4.896;2023-04-01T07:41:16;15.68;;;7.18;;
66874;SDS011;53784;52.630;4.896;2023-04-01T07:43:51;11.68;;;4.97;;
66874;SDS011;53784;52.630;4.896;2023-04-01T07:48:50;10.95;;;5.25;;
66874;SDS011;53784;52.630;4.896;2023-04-01T07:51:21;13.00;;;5.30;;
66874;SDS011;53784;52.630;4.896;2023-04-01T08:04:22;11.88;;;5.55;;
66874;SDS011;53784;52.630;4.896;2023-04-01T08:09:18;17.03;;;6.93;;
66874;SDS011;53784;52.630;4.896;2023-04-01T08:11:54;15.20;;;7.32;;
66874;SDS011;53784;52.630;4.896;2023-04-01T08:22:02;12.23;;;6.13;;
66874;SDS011;53784;52.630;4.896;2023-04-01T08:26:58;15.93;;;7.05;;
66874;SDS011;53784;52.630;4.896;2023-04-01T08:34:23;14.80;;;6.93;;
66874;SDS011;53784;52.630;4.896;2023-04-01T08:37:00;19.00;;;7.60;;
66874;SDS011;53784;52.630;4.896;2023-04-01T08:39:31;20.88;;;8.43;;
66874;SDS011;53784;52.630;4.896;2023-04-01T08:52:27;14.70;;;7.10;;
66874;SDS011;53784;52.630;4.896;2023-04-01T09:00:30;11.57;;;5.32;;
66874;SDS011;53784;52.630;4.896;2023-04-01T09:05:28;14.53;;;5.53;;
66874;SDS011;53784;52.630;4.896;2023-04-01T09:10:40;10.07;;;5.00;;
66874;SDS011;53784;52.630;4.896;2023-04-01T09:18:21;12.20;;;6.18;;
66874;SDS011;53784;52.630;4.896;2023-04-01T09:21:09;14.02;;;6.30;;
66874;SDS011;53784;52.630;4.896;2023-04-01T09:24:18;14.13;;;6.45;;
66874;SDS011;53784;52.630;4.896;2023-04-01T09:29:02;15.52;;;6.97;;
66874;SDS011;53784;52.630;4.896;2023-04-01T09:34:26;13.25;;;6.70;;
66874;SDS011;53784;52.630;4.896;2023-04-01T09:39:46;13.38;;;6.97;;
66874;SDS011;53784;52.630;4.896;2023-04-01T09:52:09;17.23;;;9.70;;
66874;SDS011;53784;52.630;4.896;2023-04-01T09:54:57;17.23;;;8.80;;
66874;SDS011;53784;52.630;4.896;2023-04-01T10:00:20;18.02;;;8.18;;
66874;SDS011;53784;52.630;4.896;2023-04-01T10:10:23;15.60;;;8.43;;
66874;SDS011;53784;52.630;4.896;2023-04-01T10:15:33;11.95;;;6.60;;
66874;SDS011;53784;52.630;4.896;2023-04-01T10:25:36;15.57;;;7.10;;
66874;SDS011;53784;52.630;4.896;2023-04-01T10:31:17;11.70;;;6.80;;
66874;SDS011;53784;52.630;4.896;2023-04-01T10:36:07;10.95;;;5.68;;
66874;SDS011;53784;52.630;4.896;2023-04-01T10:38:50;12.07;;;5.57;;
66874;SDS011;53784;52.630;4.896;2023-04-01T10:44:16;14.18;;;6.53;;
66874;SDS011;53784;52.630;4.896;2023-04-01T10:52:04;13.60;;;6.90;;
66874;SDS011;53784;52.630;4.896;2023-04-01T10:54:49;13.02;;;6.97;;
66874;SDS011;53784;52.630;4.896;2023-04-01T11:00:15;13.98;;;7.32;;
66874;SDS011;53784;52.630;4.896;2023-04-01T11:05:23;13.07;;;7.22;;
66874;SDS011;53784;52.630;4.896;2023-04-01T11:23:19;12.43;;;6.30;;
66874;SDS011;53784;52.630;4.896;2023-04-01T11:31:04;8.88;;;4.97;;
66874;SDS011;53784;52.630;4.896;2023-04-01T11:33:38;7.82;;;4.22;;
66874;SDS011;53784;52.630;4.896;2023-04-01T11:36:11;12.27;;;4.53;;
66874;SDS011;53784;52.630;4.896;2023-04-01T11:41:36;8.43;;;3.80;;
66874;SDS011;53784;52.630;4.896;2023-04-01T11:46:39;7.03;;;3.70;;
66874;SDS011;53784;52.630;4.896;2023-04-01T11:49:18;8.05;;;3.60;;
66874;SDS011;53784;52.630;4.896;2023-04-01T11:59:31;6.07;;;2.58;;
66874;SDS011;53784;52.630;4.896;2023-04-01T12:02:18;5.97;;;2.78;;
66874;SDS011;53784;52.630;4.896;2023-04-01T12:04:58;7.93;;;3.50;;
66874;SDS011;53784;52.630;4.896;2023-04-01T12:10:12;11.10;;;5.75;;
66874;SDS011;53784;52.630;4.896;2023-04-01T12:12:48;15.07;;;8.40;;
66874;SDS011;53784;52.630;4.896;2023-04-01T12:30:54;7.00;;;3.40;;
66874;SDS011;53784;52.630;4.896;2023-04-01T12:33:41;7.80;;;3.78;;
66874;SDS011;53784;52.630;4.896;2023-04-01T12:44:07;6.90;;;4.30;;
66874;SDS011;53784;52.630;4.896;2023-04-01T12:46:54;6.53;;;3.80;;
66874;SDS011;53784;52.630;4.896;2023-04-01T12:52:13;10.73;;;4.85;;
66874;SDS011;53784;52.630;4.896;2023-04-01T12:57:14;7.32;;;4.25;;
66874;SDS011;53784;52.630;4.896;2023-04-01T12:59:58;7.45;;;4.15;;
66874;SDS011;53784;52.630;4.896;2023-04-01T13:07:49;8.77;;;4.32;;
66874;SDS011;53784;52.630;4.896;2023-04-01T13:15:21;8.73;;;5.13;;
66874;SDS011;53784;52.630;4.896;2023-04-01T13:28:16;9.00;;;4.45;;
66874;SDS011;53784;52.630;4.896;2023-04-01T13:30:55;9.60;;;5.20;;
66874;SDS011;53784;52.630;4.896;2023-04-01T13:44:10;8.98;;;4.28;;
66874;SDS011;53784;52.630;4.896;2023-04-01T13:46:53;9.77;;;5.10;;
66874;SDS011;53784;52.630;4.896;2023-04-01T13:54:57;9.00;;;5.22;;
66874;SDS011;53784;52.630;4.896;2023-04-01T14:10:45;14.05;;;6.97;;
66874;SDS011;53784;52.630;4.896;2023-04-01T14:13:34;9.25;;;4.57;;
66874;SDS011;53784;52.630;4.896;2023-04-01T14:16:14;8.50;;;4.25;;
66874;SDS011;53784;52.630;4.896;2023-04-01T14:21:33;5.22;;;2.42;;
66874;SDS011;53784;52.630;4.896;2023-04-01T14:24:06;6.25;;;2.80;;
66874;SDS011;53784;52.630;4.896;2023-04-01T14:36:45;5.10;;;2.60;;
66874;SDS011;53784;52.630;4.896;2023-04-01T14:44:27;5.68;;;2.55;;
66874;SDS011;53784;52.630;4.896;2023-04-01T14:49:36;8.85;;;4.50;;
66874;SDS011;53784;52.630;4.896;2023-04-01T14:52:14;5.82;;;2.92;;
66874;SDS011;53784;52.630;4.896;2023-04-01T14:54:41;7.28;;;3.28;;
66874;SDS011;53784;52.630;4.896;2023-04-01T14:59:33;5.05;;;2.60;;
66874;SDS011;53784;52.630;4.896;2023-04-01T15:02:14;6.20;;;2.70;;
66874;SDS011;53784;52.630;4.896;2023-04-01T15:12:29;6.90;;;3.50;;
66874;SDS011;53784;52.630;4.896;2023-04-01T15:14:58;6.07;;;3.20;;
66874;SDS011;53784;52.630;4.896;2023-04-01T15:17:47;7.03;;;3.15;;
66874;SDS011;53784;52.630;4.896;2023-04-01T15:35:50;5.32;;;2.90;;
66874;SDS011;53784;52.630;4.896;2023-04-01T15:43:48;5.60;;;3.42;;
66874;SDS011;53784;52.630;4.896;2023-04-01T15:51:45;5.60;;;2.80;;
66874;SDS011;53784;52.630;4.896;2023-04-01T15:56:47;5.97;;;2.70;;
66874;SDS011;53784;52.630;4.896;2023-04-01T16:07:03;4.30;;;2.33;;
66874;SDS011;53784;52.630;4.896;2023-04-01T16:22:13;4.50;;;2.40;;
66874;SDS011;53784;52.630;4.896;2023-04-01T16:24:59;5.10;;;2.20;;
66874;SDS011;53784;52.630;4.896;2023-04-01T16:27:33;4.13;;;2.40;;
66874;SDS011;53784;52.630;4.896;2023-04-01T16:30:17;4.85;;;2.40;;
66874;SDS011;53784;52.630;4.896;2023-04-01T16:32:54;4.03;;;2.30;;
66874;SDS011;53784;52.630;4.896;2023-04-01T16:45:37;8.43;;;4.22;;
66874;SDS011;53784;52.630;4.896;2023-04-01T16:50:30;6.95;;;4.38;;
66874;SDS011;53784;52.630;4.896;2023-04-01T16:58:40;5.13;;;3.00;;
66874;SDS011;53784;52.630;4.896;2023-04-01T17:01:12;6.78;;;3.28;;
66874;SDS011;53784;52.630;4.896;2023-04-01T17:03:39;4.63;;;2.65;;
66874;SDS011;53784;52.630;4.896;2023-04-01T17:21:15;6.80;;;2.83;;
66874;SDS011;53784;52.630;4.896;2023-04-01T17:23:50;5.00;;;2.55;;
66874;SDS011;53784;52.630;4.896;2023-04-01T17:29:17;5.68;;;2.60;;
66874;SDS011;53784;52.630;4.896;2023-04-01T17:41:56;6.05;;;2.90;;
66874;SDS011;53784;52.630;4.896;2023-04-01T17:55:40;42.00;;;18.40;;
66874;SDS011;53784;52.630;4.896;2023-04-01T17:57:59;8.68;;;4.82;;
66874;SDS011;53784;52.630;4.896;2023-04-01T18:00:33;10.02;;;4.68;;
66874;SDS011;53784;52.630;4.896;2023-04-01T18:05:47;9.40;;;4.97;;
66874;SDS011;53784;52.630;4.896;2023-04-01T18:08:23;8.45;;;4.30;;
66874;SDS011;53784;52.630;4.896;2023-04-01T18:11:09;10.45;;;4.90;;
66874;SDS011;53784;52.630;4.896;2023-04-01T18:26:03;10.82;;;5.05;;
66874;SDS011;53784;52.630;4.896;2023-04-01T18:28:36;12.02;;;5.22;;
66874;SDS011;53784;52.630;4.896;2023-04-01T18:33:53;9.48;;;4.82;;
66874;SDS011;53784;52.630;4.896;2023-04-01T18:44:03;11.18;;;7.13;;
66874;SDS011;53784;52.630;4.896;2023-04-01T18:54:24;11.13;;;7.43;;
66874;SDS011;53784;52.630;4.896;2023-04-01T18:56:51;9.88;;;5.90;;
66874;SDS011;53784;52.630;4.896;2023-04-01T19:06:44;11.13;;;6.83;;
66874;SDS011;53784;52.630;4.896;2023-04-01T19:09:54;9.80;;;5.65;;
66874;SDS011;53784;52.630;4.896;2023-04-01T19:12:11;14.57;;;7.80;;
66874;SDS011;53784;52.630;4.896;2023-04-01T19:14:45;11.70;;;6.15;;
66874;SDS011;53784;52.630;4.896;2023-04-01T19:17:32;13.88;;;7.50;;
66874;SDS011;53784;52.630;4.896;2023-04-01T19:20:05;14.23;;;7.55;;
66874;SDS011;53784;52.630;4.896;2023-04-01T19:25:07;12.83;;;6.83;;
66874;SDS011;53784;52.630;4.896;2023-04-01T19:27:45;16.50;;;8.32;;
66874;SDS011;53784;52.630;4.896;2023-04-01T19:30:18;13.77;;;7.38;;
66874;SDS011;53784;52.630;4.896;2023-04-01T19:35:26;15.18;;;7.45;;
66874;SDS011;53784;52.630;4.896;2023-04-01T19:38:14;23.17;;;10.13;;
66874;SDS011;53784;52.630;4.896;2023-04-01T19:40:45;8.95;;;5.40;;
66874;SDS011;53784;52.630;4.896;2023-04-01T19:50:49;11.23;;;5.32;;
66874;SDS011;53784;52.630;4.896;2023-04-01T19:56:29;8.75;;;5.22;;
66874;SDS011;53784;52.630;4.896;2023-04-01T19:58:54;9.52;;;5.10;;
66874;SDS011;53784;52.630;4.896;2023-04-01T20:01:38;10.57;;;6.05;;
66874;SDS011;53784;52.630;4.896;2023-04-01T20:04:10;11.65;;;6.18;;
66874;SDS011;53784;52.630;4.896;2023-04-01T20:06:39;9.23;;;5.63;;
66874;SDS011;53784;52.630;4.896;2023-04-01T20:11:52;11.27;;;6.40;;
66874;SDS011;53784;52.630;4.896;2023-04-01T20:17:18;12.57;;;7.28;;
66874;SDS011;53784;52.630;4.896;2023-04-01T20:25:01;10.13;;;5.80;;
66874;SDS011;53784;52.630;4.896;2023-04-01T20:27:31;12.05;;;6.00;;
66874;SDS011;53784;52.630;4.896;2023-04-01T20:37:38;18.77;;;8.47;;
66874;SDS011;53784;52.630;4.896;2023-04-01T20:45:14;13.65;;;6.50;;
66874;SDS011;53784;52.630;4.896;2023-04-01T20:47:58;10.35;;;5.32;;
66874;SDS011;53784;52.630;4.896;2023-04-01T20:58:23;10.10;;;5.10;;
66874;SDS011;53784;52.630;4.896;2023-04-01T21:06:04;14.13;;;7.22;;
66874;SDS011;53784;52.630;4.896;2023-04-01T21:08:49;11.98;;;7.15;;
66874;SDS011;53784;52.630;4.896;2023-04-01T21:11:35;17.42;;;8.88;;
66874;SDS011;53784;52.630;4.896;2023-04-01T21:16:48;11.30;;;6.22;;
66874;SDS011;53784;52.630;4.896;2023-04-01T21:24:45;12.90;;;7.25;;
66874;SDS011;53784;52.630;4.896;2023-04-01T21:27:20;10.60;;;6.10;;
66874;SDS011;53784;52.630;4.896;2023-04-01T21:29:51;10.90;;;6.35;;
66874;SDS011;53784;52.630;4.896;2023-04-01T21:37:26;9.77;;;5.72;;
66874;SDS011;53784;52.630;4.896;2023-04-01T21:48:18;11.52;;;5.15;;
66874;SDS011;53784;52.630;4.896;2023-04-01T21:50:55;10.40;;;5.75;;
66874;SDS011;53784;52.630;4.896;2023-04-01T21:53:41;11.15;;;6.10;;
66874;SDS011;53784;52.630;4.896;2023-04-01T22:01:22;11.40;;;6.38;;
66874;SDS011;53784;52.630;4.896;2023-04-01T22:04:11;9.90;;;5.22;;
66874;SDS011;53784;52.630;4.896;2023-04-01T22:07:29;13.07;;;6.43;;
66874;SDS011;53784;52.630;4.896;2023-04-01T22:09:33;10.02;;;5.13;;
66874;SDS011;53784;52.630;4.896;2023-04-01T22:19:44;11.68;;;5.50;;
66874;SDS011;53784;52.630;4.896;2023-04-01T22:22:27;9.52;;;4.65;;
66874;SDS011;53784;52.630;4.896;2023-04-01T22:25:02;11.57;;;5.05;;
66874;SDS011;53784;52.630;4.896;2023-04-01T22:27:42;11.13;;;4.95;;
66874;SDS011;53784;52.630;4.896;2023-04-01T22:32:47;9.70;;;4.90;;
66874;SDS011;53784;52.630;4.896;2023-04-01T22:43:03;11.32;;;4.90;;
66874;SDS011;53784;52.630;4.896;2023-04-01T22:45:36;9.73;;;4.80;;
66874;SDS011;53784;52.630;4.896;2023-04-01T22:48:09;12.68;;;5.15;;
66874;SDS011;53784;52.630;4.896;2023-04-01T22:50:37;10.45;;;4.97;;
66874;SDS011;53784;52.630;4.896;2023-04-01T22:53:14;10.70;;;5.13;;
66874;SDS011;53784;52.630;4.896;2023-04-01T22:55:41;9.43;;;5.10;;
66874;SDS011;53784;52.630;4.896;2023-04-01T22:58:18;8.95;;;4.30;;
66874;SDS011;53784;52.630;4.896;2023-04-01T23:00:50;12.13;;;5.25;;
66874;SDS011;53784;52.630;4.896;2023-04-01T23:03:21;10.82;;;5.10;;
66874;SDS011;53784;52.630;4.896;2023-04-01T23:05:49;10.27;;;4.70;;
66874;SDS011;53784;52.630;4.896;2023-04-01T23:10:53;8.10;;;4.40;;
66874;SDS011;53784;52.630;4.896;2023-04-01T23:13:25;8.57;;;4.50;;
66874;SDS011;53784;52.630;4.896;2023-04-01T23:15:52;8.35;;;4.75;;
66874;SDS011;53784;52.630;4.896;2023-04-01T23:18:20;9.55;;;4.70;;
66874;SDS011;53784;52.630;4.896;2023-04-01T23:20:51;9.63;;;5.20;;
66874;SDS011;53784;52.630;4.896;2023-04-01T23:28:44;7.97;;;4.40;;
66874;SDS011;53784;52.630;4.896;2023-04-01T23:33:56;9.50;;;4.20;;
66874;SDS011;53784;52.630;4.896;2023-04-01T23:36:23;9.43;;;4.55;;
66874;SDS011;53784;52.630;4.896;2023-04-01T23:38:49;9.02;;;4.18;;
66874;SDS011;53784;52.630;4.896;2023-04-01T23:41:27;8.07;;;3.90;;
66874;SDS011;53784;52.630;4.896;2023-04-01T23:46:25;11.57;;;4.72;;
66874;SDS011;53784;52.630;4.896;2023-04-01T23:48:50;9.73;;;4.43;;
66874;SDS011;53784;52.630;4.896;2023-04-01T23:51:23;12.88;;;5.40;;
66874;SDS011;53784;52.630;4.896;2023-04-01T23:53:57;11.38;;;4.75;;
66874;SDS011;53784;52.630;4.896;2023-04-01T23:56:30;11.60;;;5.32;;
66874;SDS011;53784;52.630;4.896;2023-04-01T23:58:56;10.55;;;4.57;;
